sensor_id;sensor_type;location;lat;lon;timestamp;pressure;altitude;pressure_sealevel;temperature;humidity
15260;BME280;34462;51.368;12.364;2023-03-19T00:01:03;19840.25;;;-141.84;63.15
15260;BME280;34462;51.368;12.364;2023-03-19T00:03:31;19846.34;;;-141.84;62.84
15260;BME280;34462;51.368;12.364;2023-03-19T00:06:01;19799.63;;;-141.84;62.77
15260;BME280;34462;51.368;12.364;2023-03-19T00:08:29;19834.16;;;-141.84;62.48
15260;BME280;34462;51.368;12.364;2023-03-19T00:10:57;19856.53;;;-141.84;62.64
15260;BME280;34462;51.368;12.364;2023-03-19T00:13:26;19838.22;;;-141.84;62.25
15260;BME280;34462;51.368;12.364;2023-03-19T00:15:54;19866.69;;;-141.84;62.02
15260;BME280;34462;51.368;12.364;2023-03-19T00:18:22;19836.19;;;-141.84;62.49
15260;BME280;34462;51.368;12.364;2023-03-19T00:20:51;19860.59;;;-141.84;62.65
15260;BME280;34462;51.368;12.364;2023-03-19T00:23:20;19858.56;;;-141.84;62.04
15260;BME280;34462;51.368;12.364;2023-03-19T00:25:48;19832.13;;;-141.84;61.79
15260;BME280;34462;51.368;12.364;2023-03-19T00:28:16;19801.66;;;-141.84;61.57
15260;BME280;34462;51.368;12.364;2023-03-19T00:30:45;19921.56;;;-141.84;61.22
15260;BME280;34462;51.368;12.364;2023-03-19T00:33:13;19840.25;;;-141.84;61.06
15260;BME280;34462;51.368;12.364;2023-03-19T00:35:41;19819.94;;;-141.84;61.53
15260;BME280;34462;51.368;12.364;2023-03-19T00:38:09;19858.56;;;-141.84;61.42
15260;BME280;34462;51.368;12.364;2023-03-19T00:40:39;19858.56;;;-141.84;61.45
15260;BME280;34462;51.368;12.364;2023-03-19T00:43:08;19846.34;;;-141.84;61.50
15260;BME280;34462;51.368;12.364;2023-03-19T00:45:36;19860.59;;;-141.84;61.19
15260;BME280;34462;51.368;12.364;2023-03-19T00:48:05;19858.56;;;-141.84;61.22
15260;BME280;34462;51.368;12.364;2023-03-19T00:50:33;19889.03;;;-141.84;61.20
15260;BME280;34462;51.368;12.364;2023-03-19T00:53:02;19860.59;;;-141.84;60.55
15260;BME280;34462;51.368;12.364;2023-03-19T00:55:30;19858.56;;;-141.84;60.33
15260;BME280;34462;51.368;12.364;2023-03-19T00:58:00;19862.63;;;-141.84;60.63
15260;BME280;34462;51.368;12.364;2023-03-19T01:00:28;19864.66;;;-141.84;60.65
15260;BME280;34462;51.368;12.364;2023-03-19T01:02:56;19874.81;;;-141.84;60.90
15260;BME280;34462;51.368;12.364;2023-03-19T01:05:25;19862.63;;;-141.84;60.27
15260;BME280;34462;51.368;12.364;2023-03-19T01:07:53;19878.88;;;-141.84;59.70
15260;BME280;34462;51.368;12.364;2023-03-19T01:10:23;19905.28;;;-141.84;59.55
15260;BME280;34462;51.368;12.364;2023-03-19T01:12:51;19909.34;;;-141.84;59.30
15260;BME280;34462;51.368;12.364;2023-03-19T01:15:21;19884.97;;;-141.84;59.01
15260;BME280;34462;51.368;12.364;2023-03-19T01:17:49;19878.88;;;-141.84;59.33
15260;BME280;34462;51.368;12.364;2023-03-19T01:20:18;19891.06;;;-141.84;58.83
15260;BME280;34462;51.368;12.364;2023-03-19T01:22:49;19901.22;;;-141.84;58.68
15260;BME280;34462;51.368;12.364;2023-03-19T01:25:18;19907.31;;;-141.84;58.32
15260;BME280;34462;51.368;12.364;2023-03-19T01:27:46;19913.44;;;-141.84;58.01
15260;BME280;34462;51.368;12.364;2023-03-19T01:30:16;19915.47;;;-141.84;57.79
15260;BME280;34462;51.368;12.364;2023-03-19T01:32:45;19903.25;;;-141.84;58.37
15260;BME280;34462;51.368;12.364;2023-03-19T01:35:14;19913.44;;;-141.84;58.14
15260;BME280;34462;51.368;12.364;2023-03-19T01:37:42;19909.34;;;-141.84;58.72
15260;BME280;34462;51.368;12.364;2023-03-19T01:40:12;19872.78;;;-141.84;58.68
15260;BME280;34462;51.368;12.364;2023-03-19T01:42:52;19917.50;;;-141.84;58.23
15260;BME280;34462;51.368;12.364;2023-03-19T01:45:36;19891.06;;;-141.84;58.47
15260;BME280;34462;51.368;12.364;2023-03-19T01:48:15;19915.47;;;-141.84;58.40
15260;BME280;34462;51.368;12.364;2023-03-19T01:50:48;19878.88;;;-141.84;58.40
15260;BME280;34462;51.368;12.364;2023-03-19T01:53:24;19876.84;;;-141.84;59.09
15260;BME280;34462;51.368;12.364;2023-03-19T01:56:00;19874.81;;;-141.84;58.89
15260;BME280;34462;51.368;12.364;2023-03-19T01:58:30;19880.91;;;-141.84;59.03
15260;BME280;34462;51.368;12.364;2023-03-19T02:00:58;19878.88;;;-141.84;59.31
15260;BME280;34462;51.368;12.364;2023-03-19T02:03:28;19862.63;;;-141.84;58.54
15260;BME280;34462;51.368;12.364;2023-03-19T02:05:58;19878.88;;;-141.84;59.30
15260;BME280;34462;51.368;12.364;2023-03-19T02:08:27;19842.28;;;-141.84;59.78
15260;BME280;34462;51.368;12.364;2023-03-19T02:10:57;19858.56;;;-141.84;59.74
15260;BME280;34462;51.368;12.364;2023-03-19T02:13:26;19887.00;;;-141.84;59.69
15260;BME280;34462;51.368;12.364;2023-03-19T02:15:55;19891.06;;;-141.84;59.03
15260;BME280;34462;51.368;12.364;2023-03-19T02:18:24;19874.81;;;-141.84;59.53
15260;BME280;34462;51.368;12.364;2023-03-19T02:21:02;19864.66;;;-141.84;59.34
15260;BME280;34462;51.368;12.364;2023-03-19T02:23:40;19880.91;;;-141.84;59.82
15260;BME280;34462;51.368;12.364;2023-03-19T02:26:15;19911.41;;;-141.84;58.97
15260;BME280;34462;51.368;12.364;2023-03-19T02:28:46;19882.94;;;-141.84;59.15
15260;BME280;34462;51.368;12.364;2023-03-19T02:31:16;19846.34;;;-141.84;59.52
15260;BME280;34462;51.368;12.364;2023-03-19T02:33:55;19854.50;;;-141.84;59.27
15260;BME280;34462;51.368;12.364;2023-03-19T02:36:26;19889.03;;;-141.84;59.32
15260;BME280;34462;51.368;12.364;2023-03-19T02:38:59;19842.28;;;-141.84;58.84
15260;BME280;34462;51.368;12.364;2023-03-19T02:41:31;19884.97;;;-141.84;59.47
15260;BME280;34462;51.368;12.364;2023-03-19T02:44:03;19842.28;;;-141.84;59.79
15260;BME280;34462;51.368;12.364;2023-03-19T02:46:31;19905.28;;;-141.84;58.96
15260;BME280;34462;51.368;12.364;2023-03-19T02:48:59;19907.31;;;-141.84;58.03
15260;BME280;34462;51.368;12.364;2023-03-19T02:51:28;19889.03;;;-141.84;57.57
15260;BME280;34462;51.368;12.364;2023-03-19T02:53:56;19917.50;;;-141.84;58.44
15260;BME280;34462;51.368;12.364;2023-03-19T02:56:26;19876.84;;;-141.84;58.44
15260;BME280;34462;51.368;12.364;2023-03-19T02:58:56;19887.00;;;-141.84;58.82
15260;BME280;34462;51.368;12.364;2023-03-19T03:01:24;19866.69;;;-141.84;58.80
15260;BME280;34462;51.368;12.364;2023-03-19T03:03:52;19846.34;;;-141.84;58.94
15260;BME280;34462;51.368;12.364;2023-03-19T03:06:20;19884.97;;;-141.84;58.26
15260;BME280;34462;51.368;12.364;2023-03-19T03:08:49;19919.53;;;-141.84;58.77
15260;BME280;34462;51.368;12.364;2023-03-19T03:11:17;19856.53;;;-141.84;58.75
15260;BME280;34462;51.368;12.364;2023-03-19T03:13:46;19850.41;;;-141.84;58.61
15260;BME280;34462;51.368;12.364;2023-03-19T03:16:15;19878.88;;;-141.84;58.05
15260;BME280;34462;51.368;12.364;2023-03-19T03:18:44;19915.47;;;-141.84;57.22
15260;BME280;34462;51.368;12.364;2023-03-19T03:21:12;19909.34;;;-141.84;56.94
15260;BME280;34462;51.368;12.364;2023-03-19T03:23:41;19901.22;;;-141.84;57.46
15260;BME280;34462;51.368;12.364;2023-03-19T03:26:09;19866.69;;;-141.84;57.58
15260;BME280;34462;51.368;12.364;2023-03-19T03:28:37;19882.94;;;-141.84;58.16
15260;BME280;34462;51.368;12.364;2023-03-19T03:31:05;19876.84;;;-141.84;57.31
15260;BME280;34462;51.368;12.364;2023-03-19T03:33:35;19893.09;;;-141.84;57.79
15260;BME280;34462;51.368;12.364;2023-03-19T03:36:04;19884.97;;;-141.84;57.04
15260;BME280;34462;51.368;12.364;2023-03-19T03:38:32;19917.50;;;-141.84;57.67
15260;BME280;34462;51.368;12.364;2023-03-19T03:41:00;19913.44;;;-141.84;56.79
15260;BME280;34462;51.368;12.364;2023-03-19T03:43:29;19923.59;;;-141.84;57.27
15260;BME280;34462;51.368;12.364;2023-03-19T03:45:57;19911.41;;;-141.84;57.00
15260;BME280;34462;51.368;12.364;2023-03-19T03:48:25;19937.81;;;-141.84;56.79
15260;BME280;34462;51.368;12.364;2023-03-19T03:50:55;19929.69;;;-141.84;56.75
15260;BME280;34462;51.368;12.364;2023-03-19T03:53:23;19954.06;;;-141.84;56.16
15260;BME280;34462;51.368;12.364;2023-03-19T03:55:52;19954.06;;;-141.84;55.86
15260;BME280;34462;51.368;12.364;2023-03-19T03:58:20;19915.47;;;-141.84;56.59
15260;BME280;34462;51.368;12.364;2023-03-19T04:00:50;19903.25;;;-141.84;57.45
15260;BME280;34462;51.368;12.364;2023-03-19T04:03:18;19891.06;;;-141.84;57.68
15260;BME280;34462;51.368;12.364;2023-03-19T04:05:46;19893.09;;;-141.84;57.28
15260;BME280;34462;51.368;12.364;2023-03-19T04:08:15;19899.19;;;-141.84;56.52
15260;BME280;34462;51.368;12.364;2023-03-19T04:10:44;19903.25;;;-141.84;56.76
15260;BME280;34462;51.368;12.364;2023-03-19T04:13:12;19887.00;;;-141.84;56.77
15260;BME280;34462;51.368;12.364;2023-03-19T04:15:41;19866.69;;;-141.84;57.78
15260;BME280;34462;51.368;12.364;2023-03-19T04:18:10;19874.81;;;-141.84;57.55
15260;BME280;34462;51.368;12.364;2023-03-19T04:20:38;19882.94;;;-141.84;57.47
15260;BME280;34462;51.368;12.364;2023-03-19T04:23:07;19850.41;;;-141.84;57.50
15260;BME280;34462;51.368;12.364;2023-03-19T04:25:38;19864.66;;;-141.84;58.07
15260;BME280;34462;51.368;12.364;2023-03-19T04:28:07;19826.03;;;-141.84;58.09
15260;BME280;34462;51.368;12.364;2023-03-19T04:30:36;19830.09;;;-141.84;58.28
15260;BME280;34462;51.368;12.364;2023-03-19T04:33:04;19882.94;;;-141.84;58.32
15260;BME280;34462;51.368;12.364;2023-03-19T04:35:33;19854.50;;;-141.84;59.12
15260;BME280;34462;51.368;12.364;2023-03-19T04:38:02;19813.84;;;-141.84;59.56
15260;BME280;34462;51.368;12.364;2023-03-19T04:40:31;19807.75;;;-141.84;60.18
15260;BME280;34462;51.368;12.364;2023-03-19T04:43:01;19828.06;;;-141.84;60.47
15260;BME280;34462;51.368;12.364;2023-03-19T04:45:29;19805.72;;;-141.84;60.48
15260;BME280;34462;51.368;12.364;2023-03-19T04:47:58;19787.41;;;-141.84;60.14
15260;BME280;34462;51.368;12.364;2023-03-19T04:50:26;19795.53;;;-141.84;60.95
15260;BME280;34462;51.368;12.364;2023-03-19T04:52:55;19783.34;;;-141.84;60.92
15260;BME280;34462;51.368;12.364;2023-03-19T04:55:23;19752.88;;;-141.84;61.41
15260;BME280;34462;51.368;12.364;2023-03-19T04:57:51;19732.53;;;-141.84;62.35
15260;BME280;34462;51.368;12.364;2023-03-19T05:00:21;19718.31;;;-141.84;63.02
15260;BME280;34462;51.368;12.364;2023-03-19T05:02:49;19726.44;;;-141.84;63.38
15260;BME280;34462;51.368;12.364;2023-03-19T05:05:17;19728.47;;;-141.84;62.11
15260;BME280;34462;51.368;12.364;2023-03-19T05:07:46;19720.34;;;-141.84;62.49
15260;BME280;34462;51.368;12.364;2023-03-19T05:10:14;19722.38;;;-141.84;62.93
15260;BME280;34462;51.368;12.364;2023-03-19T05:12:42;19695.97;;;-141.84;62.82
15260;BME280;34462;51.368;12.364;2023-03-19T05:15:11;19714.25;;;-141.84;63.17
15260;BME280;34462;51.368;12.364;2023-03-19T05:17:40;19708.16;;;-141.84;63.20
15260;BME280;34462;51.368;12.364;2023-03-19T05:20:10;19671.56;;;-141.84;63.73
15260;BME280;34462;51.368;12.364;2023-03-19T05:22:40;19704.09;;;-141.84;63.96
15260;BME280;34462;51.368;12.364;2023-03-19T05:25:08;19693.94;;;-141.84;63.71
15260;BME280;34462;51.368;12.364;2023-03-19T05:27:36;19677.66;;;-141.84;64.07
15260;BME280;34462;51.368;12.364;2023-03-19T05:30:07;19728.47;;;-141.84;62.52
15260;BME280;34462;51.368;12.364;2023-03-19T05:32:36;19714.25;;;-141.84;63.14
15260;BME280;34462;51.368;12.364;2023-03-19T05:35:08;19710.19;;;-141.84;63.57
15260;BME280;34462;51.368;12.364;2023-03-19T05:37:37;19732.53;;;-141.84;61.61
15260;BME280;34462;51.368;12.364;2023-03-19T05:40:06;19740.69;;;-141.84;61.06
15260;BME280;34462;51.368;12.364;2023-03-19T05:42:34;19769.13;;;-141.84;61.35
15260;BME280;34462;51.368;12.364;2023-03-19T05:45:04;19785.38;;;-141.84;60.61
15260;BME280;34462;51.368;12.364;2023-03-19T05:47:33;19771.16;;;-141.84;60.45
15260;BME280;34462;51.368;12.364;2023-03-19T05:50:01;19793.50;;;-141.84;59.49
15260;BME280;34462;51.368;12.364;2023-03-19T05:52:30;19773.19;;;-141.84;59.92
15260;BME280;34462;51.368;12.364;2023-03-19T05:54:59;19781.31;;;-141.84;60.27
15260;BME280;34462;51.368;12.364;2023-03-19T05:57:27;19801.66;;;-141.84;59.36
15260;BME280;34462;51.368;12.364;2023-03-19T05:59:55;19781.31;;;-141.84;59.61
15260;BME280;34462;51.368;12.364;2023-03-19T06:02:24;19750.84;;;-141.84;60.65
15260;BME280;34462;51.368;12.364;2023-03-19T06:04:52;19787.41;;;-141.84;60.00
15260;BME280;34462;51.368;12.364;2023-03-19T06:07:20;19748.81;;;-141.84;60.82
15260;BME280;34462;51.368;12.364;2023-03-19T06:09:50;19785.38;;;-141.84;61.20
15260;BME280;34462;51.368;12.364;2023-03-19T06:12:18;19797.59;;;-141.84;60.28
15260;BME280;34462;51.368;12.364;2023-03-19T06:14:47;19805.72;;;-141.84;60.20
15260;BME280;34462;51.368;12.364;2023-03-19T06:17:16;19793.50;;;-141.84;60.33
15260;BME280;34462;51.368;12.364;2023-03-19T06:19:44;19826.03;;;-141.84;59.64
15260;BME280;34462;51.368;12.364;2023-03-19T06:22:12;19789.44;;;-141.84;60.07
15260;BME280;34462;51.368;12.364;2023-03-19T06:24:40;19834.16;;;-141.84;58.91
15260;BME280;34462;51.368;12.364;2023-03-19T06:27:10;19834.16;;;-141.84;58.92
15260;BME280;34462;51.368;12.364;2023-03-19T06:29:38;19834.16;;;-141.84;58.53
15260;BME280;34462;51.368;12.364;2023-03-19T06:32:08;19840.25;;;-141.84;58.72
15260;BME280;34462;51.368;12.364;2023-03-19T06:34:36;19834.16;;;-141.84;58.51
15260;BME280;34462;51.368;12.364;2023-03-19T06:37:04;19850.41;;;-141.84;57.76
15260;BME280;34462;51.368;12.364;2023-03-19T06:39:33;19905.28;;;-141.84;57.09
15260;BME280;34462;51.368;12.364;2023-03-19T06:42:01;19927.66;;;-141.84;56.46
15260;BME280;34462;51.368;12.364;2023-03-19T06:44:30;19956.09;;;-141.84;56.25
15260;BME280;34462;51.368;12.364;2023-03-19T06:46:59;19937.81;;;-141.84;55.74
15260;BME280;34462;51.368;12.364;2023-03-19T06:49:27;19960.16;;;-141.84;55.98
15260;BME280;34462;51.368;12.364;2023-03-19T06:51:55;19921.56;;;-141.84;56.20
15260;BME280;34462;51.368;12.364;2023-03-19T06:54:23;20015.03;;;-141.84;56.30
15260;BME280;34462;51.368;12.364;2023-03-19T06:56:51;19982.53;;;-141.84;55.25
15260;BME280;34462;51.368;12.364;2023-03-19T06:59:20;20002.84;;;-141.84;54.90
15260;BME280;34462;51.368;12.364;2023-03-19T07:01:49;20002.84;;;-141.84;55.15
15260;BME280;34462;51.368;12.364;2023-03-19T07:04:18;20023.19;;;-141.84;55.14
15260;BME280;34462;51.368;12.364;2023-03-19T07:06:47;20006.91;;;-141.84;54.55
15260;BME280;34462;51.368;12.364;2023-03-19T07:09:15;20015.03;;;-141.84;54.71
15260;BME280;34462;51.368;12.364;2023-03-19T07:11:43;20017.09;;;-141.84;54.58
15260;BME280;34462;51.368;12.364;2023-03-19T07:14:11;19994.72;;;-141.84;54.38
15260;BME280;34462;51.368;12.364;2023-03-19T07:16:40;20067.88;;;-141.84;54.27
15260;BME280;34462;51.368;12.364;2023-03-19T07:19:09;20025.22;;;-141.84;54.03
15260;BME280;34462;51.368;12.364;2023-03-19T07:21:37;20033.34;;;-141.84;53.95
15260;BME280;34462;51.368;12.364;2023-03-19T07:24:06;20053.66;;;-141.84;53.47
15260;BME280;34462;51.368;12.364;2023-03-19T07:26:34;20045.53;;;-141.84;53.33
15260;BME280;34462;51.368;12.364;2023-03-19T07:29:02;20049.59;;;-141.84;53.42
15260;BME280;34462;51.368;12.364;2023-03-19T07:31:30;20067.88;;;-141.84;53.74
15260;BME280;34462;51.368;12.364;2023-03-19T07:33:59;20116.66;;;-141.84;52.98
15260;BME280;34462;51.368;12.364;2023-03-19T07:36:28;20155.28;;;-141.84;52.36
15260;BME280;34462;51.368;12.364;2023-03-19T07:38:57;20114.63;;;-141.84;52.62
15260;BME280;34462;51.368;12.364;2023-03-19T07:41:25;20130.91;;;-141.84;52.29
15260;BME280;34462;51.368;12.364;2023-03-19T07:43:53;20226.44;;;-141.84;51.43
15260;BME280;34462;51.368;12.364;2023-03-19T07:46:21;20157.31;;;-141.84;52.20
15260;BME280;34462;51.368;12.364;2023-03-19T07:48:49;20210.16;;;-141.84;51.90
15260;BME280;34462;51.368;12.364;2023-03-19T07:51:18;20151.22;;;-141.84;51.92
15260;BME280;34462;51.368;12.364;2023-03-19T07:53:48;20181.72;;;-141.84;51.92
15260;BME280;34462;51.368;12.364;2023-03-19T07:56:16;20165.44;;;-141.84;51.99
15260;BME280;34462;51.368;12.364;2023-03-19T07:58:44;20191.88;;;-141.84;52.01
15260;BME280;34462;51.368;12.364;2023-03-19T08:01:12;20175.63;;;-141.84;51.92
15260;BME280;34462;51.368;12.364;2023-03-19T08:03:41;20187.81;;;-141.84;52.06
15260;BME280;34462;51.368;12.364;2023-03-19T08:06:10;20155.28;;;-141.84;52.28
15260;BME280;34462;51.368;12.364;2023-03-19T08:08:38;20202.03;;;-141.84;52.12
15260;BME280;34462;51.368;12.364;2023-03-19T08:11:08;20197.97;;;-141.84;51.95
15260;BME280;34462;51.368;12.364;2023-03-19T08:13:36;20179.69;;;-141.84;51.91
15260;BME280;34462;51.368;12.364;2023-03-19T08:16:05;20228.47;;;-141.84;51.92
15260;BME280;34462;51.368;12.364;2023-03-19T08:18:34;20212.19;;;-141.84;51.24
15260;BME280;34462;51.368;12.364;2023-03-19T08:21:03;20216.25;;;-141.84;51.38
15260;BME280;34462;51.368;12.364;2023-03-19T08:23:31;20271.16;;;-141.84;51.26
15260;BME280;34462;51.368;12.364;2023-03-19T08:25:59;20281.31;;;-141.84;50.52
15260;BME280;34462;51.368;12.364;2023-03-19T08:28:29;20297.56;;;-141.84;50.10
15260;BME280;34462;51.368;12.364;2023-03-19T08:30:57;20389.03;;;-141.84;49.57
15260;BME280;34462;51.368;12.364;2023-03-19T08:33:25;20382.94;;;-141.84;49.03
15260;BME280;34462;51.368;12.364;2023-03-19T08:36:05;20413.44;;;-141.84;49.04
15260;BME280;34462;51.368;12.364;2023-03-19T08:38:33;20476.44;;;-141.84;48.57
15260;BME280;34462;51.368;12.364;2023-03-19T08:41:02;20500.84;;;-141.84;48.15
15260;BME280;34462;51.368;12.364;2023-03-19T08:43:33;20521.16;;;-141.84;47.89
15260;BME280;34462;51.368;12.364;2023-03-19T08:46:03;20531.31;;;-141.84;47.82
15260;BME280;34462;51.368;12.364;2023-03-19T08:48:31;20588.25;;;-141.84;47.20
15260;BME280;34462;51.368;12.364;2023-03-19T08:51:02;20574.00;;;-141.84;47.12
15260;BME280;34462;51.368;12.364;2023-03-19T08:53:31;20565.88;;;-141.84;48.01
15260;BME280;34462;51.368;12.364;2023-03-19T08:56:02;20557.75;;;-141.84;48.07
15260;BME280;34462;51.368;12.364;2023-03-19T08:58:34;20590.28;;;-141.84;47.93
15260;BME280;34462;51.368;12.364;2023-03-19T09:01:06;20545.56;;;-141.84;48.48
15260;BME280;34462;51.368;12.364;2023-03-19T09:03:36;20519.13;;;-141.84;48.50
15260;BME280;34462;51.368;12.364;2023-03-19T09:06:07;20525.22;;;-141.84;48.69
15260;BME280;34462;51.368;12.364;2023-03-19T09:08:37;20531.31;;;-141.84;48.93
15260;BME280;34462;51.368;12.364;2023-03-19T09:11:05;20608.56;;;-141.84;48.01
15260;BME280;34462;51.368;12.364;2023-03-19T09:13:35;20567.91;;;-141.84;48.07
15260;BME280;34462;51.368;12.364;2023-03-19T09:16:05;20551.66;;;-141.84;48.27
15260;BME280;34462;51.368;12.364;2023-03-19T09:18:34;20511.00;;;-141.84;48.79
15260;BME280;34462;51.368;12.364;2023-03-19T09:21:03;20508.97;;;-141.84;48.30
15260;BME280;34462;51.368;12.364;2023-03-19T09:23:32;20537.44;;;-141.84;48.78
15260;BME280;34462;51.368;12.364;2023-03-19T09:26:00;20523.19;;;-141.84;48.71
15260;BME280;34462;51.368;12.364;2023-03-19T09:28:28;20543.53;;;-141.84;48.36
15260;BME280;34462;51.368;12.364;2023-03-19T09:30:58;20541.50;;;-141.84;48.31
15260;BME280;34462;51.368;12.364;2023-03-19T09:33:32;20592.31;;;-141.84;48.03
15260;BME280;34462;51.368;12.364;2023-03-19T09:36:01;20594.34;;;-141.84;48.13
15260;BME280;34462;51.368;12.364;2023-03-19T09:38:29;20582.16;;;-141.84;48.40
15260;BME280;34462;51.368;12.364;2023-03-19T09:41:08;20594.34;;;-141.84;48.53
15260;BME280;34462;51.368;12.364;2023-03-19T09:43:58;20598.41;;;-141.84;47.88
15260;BME280;34462;51.368;12.364;2023-03-19T09:46:37;20641.09;;;-141.84;47.82
15260;BME280;34462;51.368;12.364;2023-03-19T09:49:18;20702.09;;;-141.84;46.87
15260;BME280;34462;51.368;12.364;2023-03-19T09:51:52;20706.16;;;-141.84;46.36
15260;BME280;34462;51.368;12.364;2023-03-19T09:54:32;20744.78;;;-141.84;45.88
15260;BME280;34462;51.368;12.364;2023-03-19T09:57:02;20724.44;;;-141.84;45.76
15260;BME280;34462;51.368;12.364;2023-03-19T09:59:31;20728.50;;;-141.84;45.50
15260;BME280;34462;51.368;12.364;2023-03-19T10:02:37;20773.22;;;-141.84;45.48
15260;BME280;34462;51.368;12.364;2023-03-19T10:05:22;20677.69;;;-141.84;45.55
15260;BME280;34462;51.368;12.364;2023-03-19T10:08:27;20712.25;;;-141.84;45.59
15260;BME280;34462;51.368;12.364;2023-03-19T10:11:20;20740.69;;;-141.84;46.00
15260;BME280;34462;51.368;12.364;2023-03-19T10:14:05;20761.03;;;-141.84;45.03
15260;BME280;34462;51.368;12.364;2023-03-19T10:16:48;20789.50;;;-141.84;45.54
15260;BME280;34462;51.368;12.364;2023-03-19T10:19:25;20797.63;;;-141.84;45.78
15260;BME280;34462;51.368;12.364;2023-03-19T10:22:04;20824.06;;;-141.84;45.43
15260;BME280;34462;51.368;12.364;2023-03-19T10:24:37;20830.16;;;-141.84;44.50
15260;BME280;34462;51.368;12.364;2023-03-19T10:27:13;20836.25;;;-141.84;44.86
15260;BME280;34462;51.368;12.364;2023-03-19T10:29:41;20852.50;;;-141.84;44.70
15260;BME280;34462;51.368;12.364;2023-03-19T10:32:18;20832.19;;;-141.84;44.90
15260;BME280;34462;51.368;12.364;2023-03-19T10:34:50;20860.66;;;-141.84;45.11
15260;BME280;34462;51.368;12.364;2023-03-19T10:37:22;20891.13;;;-141.84;45.22
15260;BME280;34462;51.368;12.364;2023-03-19T10:39:55;20858.59;;;-141.84;44.53
15260;BME280;34462;51.368;12.364;2023-03-19T10:42:51;20870.81;;;-141.84;44.59
15260;BME280;34462;51.368;12.364;2023-03-19T10:45:26;20846.41;;;-141.84;45.43
15260;BME280;34462;51.368;12.364;2023-03-19T10:47:56;20844.38;;;-141.84;45.34
15260;BME280;34462;51.368;12.364;2023-03-19T10:50:33;20789.50;;;-141.84;45.14
15260;BME280;34462;51.368;12.364;2023-03-19T10:53:06;20797.63;;;-141.84;45.65
15260;BME280;34462;51.368;12.364;2023-03-19T10:55:53;20797.63;;;-141.84;45.38
15260;BME280;34462;51.368;12.364;2023-03-19T10:58:25;20824.06;;;-141.84;45.67
15260;BME280;34462;51.368;12.364;2023-03-19T11:00:57;20885.03;;;-141.84;44.79
15260;BME280;34462;51.368;12.364;2023-03-19T11:03:31;20848.44;;;-141.84;44.97
15260;BME280;34462;51.368;12.364;2023-03-19T11:06:15;20891.13;;;-141.84;45.12
15260;BME280;34462;51.368;12.364;2023-03-19T11:08:54;20838.28;;;-141.84;44.53
15260;BME280;34462;51.368;12.364;2023-03-19T11:11:33;20899.28;;;-141.84;44.54
15260;BME280;34462;51.368;12.364;2023-03-19T11:14:08;20891.13;;;-141.84;44.35
15260;BME280;34462;51.368;12.364;2023-03-19T11:16:54;20830.16;;;-141.84;45.55
15260;BME280;34462;51.368;12.364;2023-03-19T11:19:26;20803.72;;;-141.84;45.52
15260;BME280;34462;51.368;12.364;2023-03-19T11:22:08;20836.25;;;-141.84;45.84
15260;BME280;34462;51.368;12.364;2023-03-19T11:24:38;20838.28;;;-141.84;46.88
15260;BME280;34462;51.368;12.364;2023-03-19T11:27:08;20830.16;;;-141.84;45.79
15260;BME280;34462;51.368;12.364;2023-03-19T11:29:41;20893.16;;;-141.84;45.78
15260;BME280;34462;51.368;12.364;2023-03-19T11:32:37;20854.53;;;-141.84;45.62
15260;BME280;34462;51.368;12.364;2023-03-19T11:35:19;20929.75;;;-141.84;45.39
15260;BME280;34462;51.368;12.364;2023-03-19T11:37:56;20897.25;;;-141.84;45.95
15260;BME280;34462;51.368;12.364;2023-03-19T11:40:37;20921.63;;;-141.84;46.19
15260;BME280;34462;51.368;12.364;2023-03-19T11:43:39;20899.28;;;-141.84;46.19
15260;BME280;34462;51.368;12.364;2023-03-19T11:46:33;20815.91;;;-141.84;46.60
15260;BME280;34462;51.368;12.364;2023-03-19T11:49:47;20834.22;;;-141.84;46.93
15260;BME280;34462;51.368;12.364;2023-03-19T11:52:29;20824.06;;;-141.84;47.50
15260;BME280;34462;51.368;12.364;2023-03-19T11:55:17;20826.09;;;-141.84;46.96
15260;BME280;34462;51.368;12.364;2023-03-19T12:00:50;20935.88;;;-141.84;47.10
15260;BME280;34462;51.368;12.364;2023-03-19T12:03:57;20911.47;;;-141.84;46.91
15260;BME280;34462;51.368;12.364;2023-03-19T12:06:42;20950.09;;;-141.84;46.19
15260;BME280;34462;51.368;12.364;2023-03-19T12:09:25;20988.72;;;-141.84;45.68
15260;BME280;34462;51.368;12.364;2023-03-19T12:12:06;21068.00;;;-141.84;45.64
15260;BME280;34462;51.368;12.364;2023-03-19T12:14:54;21045.63;;;-141.84;45.30
15260;BME280;34462;51.368;12.364;2023-03-19T12:17:43;21039.53;;;-141.84;45.13
15260;BME280;34462;51.368;12.364;2023-03-19T12:20:39;21063.94;;;-141.84;45.00
15260;BME280;34462;51.368;12.364;2023-03-19T12:23:28;21023.28;;;-141.84;45.88
15260;BME280;34462;51.368;12.364;2023-03-19T12:26:04;20958.22;;;-141.84;46.42
15260;BME280;34462;51.368;12.364;2023-03-19T12:28:43;20939.94;;;-141.84;47.24
15260;BME280;34462;51.368;12.364;2023-03-19T12:31:54;20925.69;;;-141.84;47.88
15260;BME280;34462;51.368;12.364;2023-03-19T12:34:33;20826.09;;;-141.84;48.80
15260;BME280;34462;51.368;12.364;2023-03-19T12:37:18;20809.81;;;-141.84;49.14
15260;BME280;34462;51.368;12.364;2023-03-19T12:40:02;20754.94;;;-141.84;49.90
15260;BME280;34462;51.368;12.364;2023-03-19T12:42:38;20730.53;;;-141.84;49.71
15260;BME280;34462;51.368;12.364;2023-03-19T12:45:25;20748.84;;;-141.84;49.89
15260;BME280;34462;51.368;12.364;2023-03-19T12:48:01;20789.50;;;-141.84;50.54
15260;BME280;34462;51.368;12.364;2023-03-19T12:50:36;20803.72;;;-141.84;51.78
15260;BME280;34462;51.368;12.364;2023-03-19T12:53:11;20793.56;;;-141.84;52.19
15260;BME280;34462;51.368;12.364;2023-03-19T12:55:47;20728.50;;;-141.84;55.10
15260;BME280;34462;51.368;12.364;2023-03-19T12:58:24;20720.38;;;-141.84;55.37